Huvudsida
METAR-TAF:

METAR-TAF

Flygplatser :

Entrammes

Laval, Frankrike

latitud: 48-01-56N, longitud: 000-44-34W, höjd: 101 m

Aktuellt väderrapport

Denna rapport gjordes för 32 minuter sedan, klockan 16:00 UTC
Vind 23 kt från nord/nordost
Temperatur 7°C
Fuktighet 57%
Tryck 1029 hPa
Sikt 10 km eller mer
Inga moln under 1 500 m eller inga cumulonimbus

METAR: LFOV 291600Z AUTO 03023KT CAVOK 07/M01 Q1029

Tid: 18:32 (16:32 UTC)


TAF: saknas

Aktuella väderrapporter och prognoser från 4000 flygplatser (METAR- och TAF-rapporter).

De tillgängliga stationerna syns som gula och röda prickar på kartan.

För musen över prickarna för att se namnen på stationerna.

Klicka sedan för att få väderrapporter och prognoser.

För att ändra kartan: Klicka på de gröna knapparna med ett svart kors på för att zooma in; den gröna knappen med ett streck på för att zooma ut; eller på de gröna pilarna för angränsande kartor.


METAR-TAF: